Time;durP1;ratioP1;P1;durP2;ratioP2;P2;SDS_P1;SDS_P2;PMS_P1;PMS_P2;Temp;Humidity;BMP_temperature;BMP_pressure;BME280_temperature;BME280_humidity;BME280_pressure;Samples;Min_cycle;Max_cycle;Signal;HPM_P1;HPM_P2
2023/09/06 00:02:06;;;;;;;;;;;;;;;19.21;76.78;95550.03;5115891;28;2126;-60
2023/09/06 00:04:52;;;;;;;;;;;;;;;19.16;76.79;95539.00;5101070;28;1557;-60
2023/09/06 00:07:37;;;;;;;;;;;;;;;19.20;76.74;95544.81;5116093;28;1691;-60
2023/09/06 00:10:23;;;;;;;;;;;;;;;19.13;77.43;95528.56;5115943;28;1533;-60
2023/09/06 00:13:09;;;;;;;;;;;;;;;19.13;77.08;95528.56;5115657;28;1921;-59
2023/09/06 00:15:54;;;;;;;;;;;;;;;19.15;76.97;95525.63;5115901;28;1732;-60
2023/09/06 00:18:40;;;;;;;;;;;;;;;19.09;77.49;95530.84;5115812;28;1669;-60
2023/09/06 00:21:59;;;;;;;;;;;;;;;19.18;77.08;95536.91;5123821;27;1516;-59
2023/09/06 00:24:44;;;;;;;;;;;;;;;19.33;76.00;95531.31;5102664;27;1539;-59
2023/09/06 00:27:29;;;;;;;;;;;;;;;19.30;76.38;95524.41;5120839;27;1687;-60
2023/09/06 00:30:15;;;;;;;;;;;;;;;19.31;76.13;95523.38;5135870;27;1532;-60
2023/09/06 00:36:29;;;;;;;;;;;;;;;18.90;78.00;95528.91;5135707;27;1568;-59
2023/09/06 00:39:15;;;;;;;;;;;;;;;18.94;77.69;95526.63;5135597;27;2064;-59
2023/09/06 00:42:01;;;;;;;;;;;;;;;18.86;78.46;95519.53;5135953;27;2169;-59
2023/09/06 00:44:46;;;;;;;;;;;;;;;18.91;77.93;95523.28;5135950;27;1525;-60
2023/09/06 00:47:32;;;;;;;;;;;;;;;19.06;77.25;95514.16;5135731;27;1552;-60
2023/09/06 00:50:17;;;;;;;;;;;;;;;19.17;76.85;95516.25;5135415;27;2407;-60
2023/09/06 00:53:05;;;;;;;;;;;;;;;19.13;76.56;95519.59;5118063;27;2774;-60
2023/09/06 00:55:51;;;;;;;;;;;;;;;18.98;76.94;95498.09;5135655;27;1618;-60
2023/09/06 00:58:38;;;;;;;;;;;;;;;18.96;77.50;95519.97;5135315;27;2191;-60
2023/09/06 01:01:24;;;;;;;;;;;;;;;18.90;76.87;95518.91;5135432;27;1525;-59
2023/09/06 01:04:09;;;;;;;;;;;;;;;18.91;77.18;95523.28;5135243;27;1576;-60
2023/09/06 01:06:58;;;;;;;;;;;;;;;19.09;76.16;95516.47;5135117;27;1533;-60
2023/09/06 01:09:43;;;;;;;;;;;;;;;19.15;75.53;95512.91;5135398;27;1434;-60
2023/09/06 01:12:29;;;;;;;;;;;;;;;19.24;75.14;95508.97;5135066;27;1977;-60
2023/09/06 01:15:14;;;;;;;;;;;;;;;19.26;74.77;95506.88;5135178;27;1715;-59
2023/09/06 01:18:04;;;;;;;;;;;;;;;19.27;74.36;95514.00;5135244;27;1663;-60
2023/09/06 01:20:57;;;;;;;;;;;;;;;19.36;74.40;95497.53;5131435;27;1572;-60
2023/09/06 01:23:43;;;;;;;;;;;;;;;19.21;75.66;95517.50;5114271;28;1564;-60
2023/09/06 01:26:28;;;;;;;;;;;;;;;19.16;75.44;95511.88;5114179;28;1739;-60
2023/09/06 01:29:13;;;;;;;;;;;;;;;19.20;75.37;95518.56;5128568;27;2508;-60
2023/09/06 01:31:59;;;;;;;;;;;;;;;19.04;76.00;95522.47;5134872;27;1902;-60
2023/09/06 01:34:44;;;;;;;;;;;;;;;19.07;76.51;95521.25;5134970;27;1549;-60
2023/09/06 01:37:30;;;;;;;;;;;;;;;19.01;77.49;95516.63;5134834;27;1660;-58
2023/09/06 01:40:17;;;;;;;;;;;;;;;18.93;76.68;95523.06;5134823;27;2156;-60
2023/09/06 01:43:02;;;;;;;;;;;;;;;18.96;76.09;95506.41;5134509;27;1533;-60
2023/09/06 01:45:51;;;;;;;;;;;;;;;18.98;76.10;95515.16;5134792;27;1660;-60
2023/09/06 01:48:39;;;;;;;;;;;;;;;19.13;75.21;95512.28;5134747;27;1564;-60
2023/09/06 01:51:57;;;;;;;;;;;;;;;19.09;75.58;95506.44;5139340;27;1549;-60
2023/09/06 01:54:45;;;;;;;;;;;;;;;18.94;76.49;95508.50;5155001;27;1714;-60
2023/09/06 01:57:30;;;;;;;;;;;;;;;19.20;75.90;95496.88;5155268;27;1524;-60
2023/09/06 02:00:19;;;;;;;;;;;;;;;19.18;76.04;95498.97;5154862;27;1542;-60
2023/09/06 02:03:11;;;;;;;;;;;;;;;19.14;75.91;95497.69;5154927;27;1543;-60
2023/09/06 02:05:56;;;;;;;;;;;;;;;19.07;76.14;95491.44;5155274;27;2142;-60
2023/09/06 02:08:42;;;;;;;;;;;;;;;19.09;76.39;95503.72;5155248;27;1674;-61
2023/09/06 02:11:28;;;;;;;;;;;;;;;19.12;75.48;95507.91;5155083;27;1554;-59
2023/09/06 02:14:13;;;;;;;;;;;;;;;19.14;75.70;95503.09;5155075;27;1685;-60
2023/09/06 02:16:59;;;;;;;;;;;;;;;19.11;75.69;95519.78;5154899;27;1555;-59
2023/09/06 02:19:44;;;;;;;;;;;;;;;19.21;74.78;95516.69;5142704;27;2416;-60
2023/09/06 02:22:29;;;;;;;;;;;;;;;19.15;75.38;95520.22;5137178;27;1558;-60
2023/09/06 02:25:16;;;;;;;;;;;;;;;19.07;75.77;95526.66;5134037;28;2228;-60
2023/09/06 02:28:04;;;;;;;;;;;;;;;19.11;76.10;95523.31;5134315;28;1474;-60
2023/09/06 02:30:50;;;;;;;;;;;;;;;19.07;76.61;95526.66;5134356;28;1347;-60
2023/09/06 02:33:35;;;;;;;;;;;;;;;19.09;75.92;95524.59;5133953;28;2265;-60
2023/09/06 02:36:20;;;;;;;;;;;;;;;19.10;75.90;95529.81;5134183;28;2034;-57
2023/09/06 02:39:06;;;;;;;;;;;;;;;19.17;75.23;95537.94;5133877;28;1571;-59
2023/09/06 02:41:51;;;;;;;;;;;;;;;19.20;75.83;95529.41;5133917;28;2036;-59
2023/09/06 02:44:37;;;;;;;;;;;;;;;19.27;75.37;95529.41;5133839;28;1563;-59
2023/09/06 02:47:28;;;;;;;;;;;;;;;19.24;75.20;95533.38;5134093;28;1497;-57
2023/09/06 02:50:14;;;;;;;;;;;;;;;19.28;75.22;95531.09;5134027;28;1548;-59
2023/09/06 02:53:01;;;;;;;;;;;;;;;19.25;75.26;95529.59;5133576;28;1906;-59
2023/09/06 02:55:48;;;;;;;;;;;;;;;19.21;75.71;95528.34;5133825;28;1717;-58
2023/09/06 02:58:37;;;;;;;;;;;;;;;19.17;76.67;95534.41;5133966;28;1687;-58
2023/09/06 03:01:22;;;;;;;;;;;;;;;19.07;76.51;95537.50;5133654;28;1659;-59
2023/09/06 03:04:08;;;;;;;;;;;;;;;19.13;76.02;95533.97;5133669;28;1583;-60
2023/09/06 03:06:54;;;;;;;;;;;;;;;19.12;76.18;95537.72;5134002;28;1683;-59
2023/09/06 03:09:39;;;;;;;;;;;;;;;19.23;75.43;95542.53;5133611;28;1742;-58
2023/09/06 03:12:25;;;;;;;;;;;;;;;19.22;75.28;95526.50;5133038;27;2494;-58
2023/09/06 03:15:10;;;;;;;;;;;;;;;19.17;75.43;95537.09;5158050;27;1567;-59
2023/09/06 03:17:58;;;;;;;;;;;;;;;19.15;75.40;95534.59;5158079;27;2025;-59
2023/09/06 03:20:44;;;;;;;;;;;;;;;19.09;75.67;95536.25;5140430;27;1513;-58
2023/09/06 03:23:32;;;;;;;;;;;;;;;19.11;75.70;95527.94;5137449;27;1529;-58
2023/09/06 03:26:17;;;;;;;;;;;;;;;19.09;75.49;95540.84;5137005;27;1571;-58
2023/09/06 03:29:02;;;;;;;;;;;;;;;18.92;76.02;95524.94;5137460;27;1635;-58
2023/09/06 03:31:48;;;;;;;;;;;;;;;19.13;75.71;95544.81;5137185;27;1906;-59
2023/09/06 03:34:34;;;;;;;;;;;;;;;19.13;75.23;95550.22;5137215;27;1553;-59
2023/09/06 03:37:22;;;;;;;;;;;;;;;19.14;75.46;95535.63;5137211;27;1545;-58
2023/09/06 03:40:25;;;;;;;;;;;;;;;19.15;75.21;95537.31;5137197;27;1533;-58
2023/09/06 03:43:19;;;;;;;;;;;;;;;19.05;75.36;95536.88;5136655;27;1540;-59
2023/09/06 03:46:09;;;;;;;;;;;;;;;19.00;75.75;95539.34;5137069;27;1682;-58
2023/09/06 03:48:54;;;;;;;;;;;;;;;19.09;75.61;95532.72;5137019;27;1664;-58
2023/09/06 03:51:40;;;;;;;;;;;;;;;19.05;75.87;95547.72;5136460;27;1913;-59
2023/09/06 03:54:25;;;;;;;;;;;;;;;18.97;75.63;95546.03;5136818;27;1691;-58
2023/09/06 03:57:12;;;;;;;;;;;;;;;18.94;75.96;95548.31;5136827;27;2049;-59
2023/09/06 03:59:58;;;;;;;;;;;;;;;18.95;76.08;95553.50;5136608;27;1788;-58
2023/09/06 04:02:44;;;;;;;;;;;;;;;19.02;75.52;95557.06;5136399;27;1698;-58
2023/09/06 04:05:29;;;;;;;;;;;;;;;19.13;75.11;95555.66;5130310;27;2583;-58
2023/09/06 04:08:17;;;;;;;;;;;;;;;19.19;74.45;95560.25;5136536;27;1548;-58
2023/09/06 04:11:03;;;;;;;;;;;;;;;19.21;74.62;95562.75;5136505;27;1575;-58
2023/09/06 04:13:51;;;;;;;;;;;;;;;19.22;75.28;95559.84;5136132;27;1983;-58
2023/09/06 04:16:37;;;;;;;;;;;;;;;19.17;75.32;95562.31;5136512;27;1644;-58
2023/09/06 04:19:22;;;;;;;;;;;;;;;19.24;74.40;95557.75;5120811;27;2108;-58
2023/09/06 04:22:07;;;;;;;;;;;;;;;19.21;74.52;95560.88;5120384;27;1552;-58
2023/09/06 04:24:53;;;;;;;;;;;;;;;19.25;74.15;95570.25;5136046;27;1548;-58
2023/09/06 04:27:39;;;;;;;;;;;;;;;19.34;73.74;95551.13;5136010;27;1549;-58
2023/09/06 04:30:28;;;;;;;;;;;;;;;19.28;74.52;95552.78;5136148;27;1545;-59
2023/09/06 04:33:14;;;;;;;;;;;;;;;19.26;74.24;95554.84;5135756;27;2201;-58
2023/09/06 04:36:01;;;;;;;;;;;;;;;19.29;74.28;95559.84;5135830;27;2109;-57
2023/09/06 04:38:46;;;;;;;;;;;;;;;19.39;73.28;95551.31;5135656;27;1532;-58
2023/09/06 04:41:32;;;;;;;;;;;;;;;19.33;73.73;95555.72;5135984;27;1548;-58
2023/09/06 04:44:17;;;;;;;;;;;;;;;19.40;73.33;95555.72;5136115;27;1540;-58
2023/09/06 04:47:03;;;;;;;;;;;;;;;19.47;73.08;95564.69;5135622;27;1694;-58
2023/09/06 04:49:48;;;;;;;;;;;;;;;19.37;72.71;95569.66;5135882;27;1657;-58
2023/09/06 04:52:42;;;;;;;;;;;;;;;19.36;73.13;95576.13;5120478;27;1890;-58
2023/09/06 04:55:28;;;;;;;;;;;;;;;19.43;73.56;95577.00;5114837;28;1688;-58
2023/09/06 04:58:14;;;;;;;;;;;;;;;19.48;72.70;95572.63;5121683;27;2495;-58
2023/09/06 05:01:02;;;;;;;;;;;;;;;19.56;72.53;95570.72;5135547;27;1679;-58
2023/09/06 05:03:48;;;;;;;;;;;;;;;19.47;72.68;95575.53;5135643;27;1545;-58
2023/09/06 05:06:33;;;;;;;;;;;;;;;19.47;73.02;95572.81;5135072;27;1576;-58
2023/09/06 05:09:19;;;;;;;;;;;;;;;19.46;73.17;95579.28;5135391;27;1529;-59
2023/09/06 05:12:04;;;;;;;;;;;;;;;19.27;73.80;95579.06;5135055;27;1991;-58
2023/09/06 05:14:50;;;;;;;;;;;;;;;19.33;73.20;95581.97;5135039;27;1698;-58
2023/09/06 05:17:35;;;;;;;;;;;;;;;19.34;73.18;95583.66;5135275;27;1636;-58
2023/09/06 05:20:20;;;;;;;;;;;;;;;19.41;73.64;95579.09;5134954;27;1013;-59
2023/09/06 05:22:46;;;;;;;;;;;;;;;19.42;73.38;95588.88;5115511;27;1176;-58
2023/09/06 05:25:12;;;;;;;;;;;;;;;19.47;72.85;95589.09;5114564;28;1048;-58
2023/09/06 05:27:38;;;;;;;;;;;;;;;19.46;73.10;95590.97;5114362;28;996;-58
2023/09/06 05:30:27;;;;;;;;;;;;;;;19.41;73.04;95598.06;5114165;28;1769;-58
2023/09/06 05:33:14;;;;;;;;;;;;;;;19.49;73.00;95592.44;5114012;28;1993;-58
2023/09/06 05:35:59;;;;;;;;;;;;;;;19.50;73.19;95597.66;5114005;28;1587;-58
2023/09/06 05:38:25;;;;;;;;;;;;;;;19.63;72.41;95596.81;5114221;28;1103;-58
2023/09/06 05:40:51;;;;;;;;;;;;;;;19.63;72.39;95593.28;5114308;28;1047;-59
2023/09/06 05:43:36;;;;;;;;;;;;;;;19.70;72.29;95589.53;5114338;28;1533;-59
2023/09/06 05:46:22;;;;;;;;;;;;;;;19.71;71.72;95593.09;5114181;28;1640;-58
2023/09/06 05:49:08;;;;;;;;;;;;;;;19.67;71.59;95600.81;5113963;28;1696;-58
2023/09/06 05:51:53;;;;;;;;;;;;;;;19.70;72.16;95602.25;5122839;27;1918;-59
2023/09/06 05:54:19;;;;;;;;;;;;;;;19.73;71.35;95599.19;5134349;27;1028;-58
2023/09/06 05:56:47;;;;;;;;;;;;;;;19.66;72.20;95604.56;5116310;27;1242;-58
2023/09/06 05:59:32;;;;;;;;;;;;;;;19.63;72.03;95599.53;5119005;27;1549;-59
2023/09/06 06:02:18;;;;;;;;;;;;;;;19.65;73.10;95615.59;5134251;27;1548;-58
2023/09/06 06:05:03;;;;;;;;;;;;;;;19.58;73.35;95606.63;5134633;27;1694;-58
2023/09/06 06:07:30;;;;;;;;;;;;;;;19.60;72.14;95613.53;5134244;28;981;-58
2023/09/06 06:09:56;;;;;;;;;;;;;;;19.66;72.44;95625.44;5134554;28;953;-58
2023/09/06 06:12:22;;;;;;;;;;;;;;;19.68;72.02;95624.16;5134333;28;1905;-58
2023/09/06 06:14:49;;;;;;;;;;;;;;;19.69;71.97;95625.84;5134194;28;1023;-58
2023/09/06 06:17:15;;;;;;;;;;;;;;;19.69;71.05;95630.44;5134254;28;1043;-58
2023/09/06 06:19:41;;;;;;;;;;;;;;;19.66;71.13;95637.09;5116339;28;1023;-59
2023/09/06 06:22:07;;;;;;;;;;;;;;;19.79;71.04;95630.06;5134055;28;1212;-58
2023/09/06 06:24:33;;;;;;;;;;;;;;;19.85;70.62;95638.22;5134397;28;1009;-58
2023/09/06 06:26:59;;;;;;;;;;;;;;;19.93;70.60;95630.91;5134439;28;972;-58
2023/09/06 06:29:26;;;;;;;;;;;;;;;19.93;70.33;95634.47;5134373;28;999;-58
2023/09/06 06:31:52;;;;;;;;;;;;;;;19.88;70.38;95642.38;5134058;28;1906;-59
2023/09/06 06:37:27;;;;;;;;;;;;;;;19.97;70.01;95643.84;5134136;28;697;-58
2023/09/06 06:40:12;;;;;;;;;;;;;;;20.09;70.14;95649.50;5134245;28;1521;-58
2023/09/06 06:42:57;;;;;;;;;;;;;;;20.13;70.26;95653.47;5134217;28;2186;-58
2023/09/06 06:45:47;;;;;;;;;;;;;;;20.17;70.02;95654.72;5135582;27;2246;-58
2023/09/06 06:48:13;;;;;;;;;;;;;;;20.22;70.09;95659.50;5138132;27;1060;-58
2023/09/06 06:50:39;;;;;;;;;;;;;;;20.26;71.05;95652.63;5119681;27;1028;-59
2023/09/06 06:53:05;;;;;;;;;;;;;;;20.12;73.56;95659.94;5118451;27;1906;-59
2023/09/06 06:55:31;;;;;;;;;;;;;;;20.20;71.33;95659.72;5117499;28;1030;-58
2023/09/06 06:57:57;;;;;;;;;;;;;;;20.26;70.57;95649.91;5117253;28;1032;-58
2023/09/06 07:00:23;;;;;;;;;;;;;;;20.27;69.51;95660.56;5117465;28;1037;-58
2023/09/06 07:02:49;;;;;;;;;;;;;;;20.43;68.55;95656.59;5117429;28;991;-58
2023/09/06 07:05:16;;;;;;;;;;;;;;;20.39;68.87;95654.50;5117164;28;958;-58
2023/09/06 07:07:42;;;;;;;;;;;;;;;20.29;69.78;95665.78;5117063;28;1036;-58
2023/09/06 07:10:08;;;;;;;;;;;;;;;20.33;69.31;95661.59;5098932;28;1103;-58
2023/09/06 07:12:35;;;;;;;;;;;;;;;20.44;69.05;95660.97;5117129;28;1905;-57
2023/09/06 07:15:02;;;;;;;;;;;;;;;20.61;68.01;95657.84;5116878;28;1028;-58
2023/09/06 07:17:28;;;;;;;;;;;;;;;20.61;68.31;95655.97;5117091;28;980;-58
2023/09/06 07:19:54;;;;;;;;;;;;;;;20.62;67.44;95663.09;5116790;28;1083;-58
2023/09/06 07:22:20;;;;;;;;;;;;;;;20.64;67.69;95657.41;5100674;28;1212;-58
2023/09/06 07:24:45;;;;;;;;;;;;;;;20.82;67.45;95657.59;5095221;28;984;-58
2023/09/06 07:27:11;;;;;;;;;;;;;;;20.87;66.93;95662.41;5096070;28;1128;-58
2023/09/06 07:29:37;;;;;;;;;;;;;;;21.02;68.66;95662.16;5096149;28;1036;-59
2023/09/06 07:32:03;;;;;;;;;;;;;;;21.29;66.70;95662.88;5096031;28;1902;-59
2023/09/06 07:34:30;;;;;;;;;;;;;;;21.34;67.17;95652.19;5096002;28;1044;-59
2023/09/06 07:36:56;;;;;;;;;;;;;;;21.44;65.95;95651.75;5096082;28;1095;-57
2023/09/06 07:39:22;;;;;;;;;;;;;;;21.52;65.16;95654.22;5095874;28;1115;-58
2023/09/06 07:41:49;;;;;;;;;;;;;;;21.50;64.18;95647.34;5095324;28;1044;-58
2023/09/06 07:44:15;;;;;;;;;;;;;;;21.60;65.52;95640.34;5095833;28;1100;-59
2023/09/06 07:46:44;;;;;;;;;;;;;;;21.46;64.70;95638.78;5095865;28;1032;-59
2023/09/06 07:49:09;;;;;;;;;;;;;;;21.50;64.99;95641.91;5095976;28;1008;-59
2023/09/06 07:51:35;;;;;;;;;;;;;;;21.44;64.90;95646.31;5102087;28;1117;-58
2023/09/06 07:54:01;;;;;;;;;;;;;;;21.41;64.86;95641.28;5137237;27;2557;-58
2023/09/06 07:56:28;;;;;;;;;;;;;;;21.43;65.22;95652.78;5156958;27;1039;-59
2023/09/06 07:58:55;;;;;;;;;;;;;;;21.37;65.50;95650.94;5157148;27;1002;-59
2023/09/06 08:01:40;;;;;;;;;;;;;;;21.41;65.26;95652.97;5157566;27;1662;-59
2023/09/06 08:04:25;;;;;;;;;;;;;;;21.37;65.55;95645.47;5157388;27;1548;-59
2023/09/06 08:07:11;;;;;;;;;;;;;;;21.34;66.10;95649.47;5157399;27;1520;-58
2023/09/06 08:09:48;;;;;;;;;;;;;;;21.45;65.09;95648.81;5157463;27;1040;-58
2023/09/06 08:12:21;;;;;;;;;;;;;;;21.48;65.90;95655.72;5157071;27;1980;-59
2023/09/06 08:14:47;;;;;;;;;;;;;;;21.59;65.44;95646.03;5157017;27;989;-59
2023/09/06 08:17:13;;;;;;;;;;;;;;;21.74;66.12;95660.19;5157144;27;956;-59
2023/09/06 08:19:58;;;;;;;;;;;;;;;21.82;64.65;95659.91;5157219;27;2016;-59
2023/09/06 08:22:45;;;;;;;;;;;;;;;21.80;64.32;95642.97;5137626;27;1535;-59
2023/09/06 08:25:31;;;;;;;;;;;;;;;21.77;65.24;95645.28;5135947;27;1692;-59
2023/09/06 08:27:57;;;;;;;;;;;;;;;21.92;65.15;95640.38;5136321;27;995;-59
2023/09/06 08:30:44;;;;;;;;;;;;;;;21.96;65.14;95629.88;5136282;27;1513;-59
2023/09/06 08:33:29;;;;;;;;;;;;;;;21.98;63.54;95628.59;5135725;27;1988;-59
2023/09/06 08:35:55;;;;;;;;;;;;;;;22.10;64.17;95634.19;5135865;27;962;-58
2023/09/06 08:38:41;;;;;;;;;;;;;;;22.28;64.22;95621.69;5135826;27;2209;-58
2023/09/06 08:41:07;;;;;;;;;;;;;;;22.39;62.70;95629.97;5136092;27;1007;-57
2023/09/06 08:43:41;;;;;;;;;;;;;;;22.51;62.07;95632.78;5135759;27;1109;-59
2023/09/06 08:46:23;;;;;;;;;;;;;;;22.58;61.00;95625.38;5135825;27;1020;-58
2023/09/06 08:48:51;;;;;;;;;;;;;;;22.59;60.36;95632.53;5135952;27;1064;-58
2023/09/06 08:51:19;;;;;;;;;;;;;;;22.58;59.78;95619.94;5135280;27;1178;-60
2023/09/06 08:53:47;;;;;;;;;;;;;;;22.63;58.45;95630.16;5135477;27;1910;-57
2023/09/06 08:56:15;;;;;;;;;;;;;;;22.71;60.24;95621.69;5135727;27;973;-57
2023/09/06 08:58:41;;;;;;;;;;;;;;;22.74;61.43;95626.69;5135718;27;1126;-57
2023/09/06 09:01:08;;;;;;;;;;;;;;;22.70;59.25;95630.09;5135328;27;968;-56
2023/09/06 09:03:53;;;;;;;;;;;;;;;22.66;58.77;95623.44;5135566;27;1713;-56
2023/09/06 09:06:43;;;;;;;;;;;;;;;22.54;59.68;95620.63;5135542;27;1528;-55
2023/09/06 09:09:28;;;;;;;;;;;;;;;22.53;61.60;95619.78;5133050;27;2526;-55
2023/09/06 09:11:55;;;;;;;;;;;;;;;22.44;61.58;95642.91;5135342;27;2004;-53
2023/09/06 09:14:44;;;;;;;;;;;;;;;22.54;59.87;95631.53;5135432;27;2017;-55
2023/09/06 09:17:10;;;;;;;;;;;;;;;22.58;58.95;95621.84;5135330;27;1000;-54
2023/09/06 09:19:37;;;;;;;;;;;;;;;22.52;60.48;95641.78;5135069;27;1032;-54
2023/09/06 09:22:07;;;;;;;;;;;;;;;22.37;60.58;95653.88;5134763;27;1157;-54
2023/09/06 09:24:32;;;;;;;;;;;;;;;22.45;58.69;95627.41;5135044;27;953;-55
2023/09/06 09:26:58;;;;;;;;;;;;;;;22.55;58.99;95633.16;5135034;27;977;-54
2023/09/06 09:29:25;;;;;;;;;;;;;;;22.56;58.10;95627.50;5146236;27;2496;-54
2023/09/06 09:31:51;;;;;;;;;;;;;;;22.64;57.73;95626.38;5155515;27;1906;-55
2023/09/06 09:34:36;;;;;;;;;;;;;;;22.79;58.21;95629.56;5155383;27;2046;-55
2023/09/06 09:37:05;;;;;;;;;;;;;;;22.81;55.90;95632.91;5128175;27;2566;-54
2023/09/06 09:39:31;;;;;;;;;;;;;;;22.99;56.85;95629.38;5114191;28;980;-54
2023/09/06 09:41:58;;;;;;;;;;;;;;;23.05;56.59;95627.66;5114089;28;1072;-55
2023/09/06 09:44:24;;;;;;;;;;;;;;;23.09;56.72;95623.41;5114298;28;996;-54
2023/09/06 09:46:54;;;;;;;;;;;;;;;23.16;56.25;95626.03;5114093;28;1043;-55
2023/09/06 09:49:20;;;;;;;;;;;;;;;23.31;55.79;95631.09;5114156;28;1046;-54
2023/09/06 09:51:49;;;;;;;;;;;;;;;23.35;55.36;95626.84;5114030;28;1072;-54
2023/09/06 09:54:38;;;;;;;;;;;;;;;23.51;54.94;95628.13;5113954;28;2346;-55
2023/09/06 09:57:26;;;;;;;;;;;;;;;23.63;54.29;95609.06;5114011;28;1690;-55
2023/09/06 10:00:13;;;;;;;;;;;;;;;23.81;54.51;95622.69;5113862;28;1925;-55
2023/09/06 10:03:00;;;;;;;;;;;;;;;24.21;54.70;95622.06;5114121;28;2169;-55
2023/09/06 10:05:41;;;;;;;;;;;;;;;23.95;53.55;95621.41;5113924;28;1016;-55
2023/09/06 10:08:08;;;;;;;;;;;;;;;23.83;53.45;95626.00;5113740;28;1024;-55
2023/09/06 10:10:54;;;;;;;;;;;;;;;23.74;53.58;95613.72;5114016;28;1497;-54
2023/09/06 10:13:26;;;;;;;;;;;;;;;23.76;53.67;95617.06;5113563;28;1905;-54
2023/09/06 10:15:53;;;;;;;;;;;;;;;23.89;53.06;95611.44;5113750;28;1008;-54
2023/09/06 10:18:19;;;;;;;;;;;;;;;24.38;53.32;95608.53;5113792;28;957;-54
2023/09/06 10:20:46;;;;;;;;;;;;;;;24.34;51.61;95608.19;5118028;27;1213;-54
2023/09/06 10:23:32;;;;;;;;;;;;;;;24.56;51.66;95610.34;5138375;27;2353;-54
2023/09/06 10:26:24;;;;;;;;;;;;;;;25.12;50.97;95608.84;5138666;27;2216;-54
2023/09/06 10:29:09;;;;;;;;;;;;;;;25.53;50.97;95597.91;5138347;27;2209;-54
2023/09/06 10:31:59;;;;;;;;;;;;;;;25.95;49.75;95607.75;5138487;27;2027;-53
2023/09/06 10:34:26;;;;;;;;;;;;;;;25.64;49.54;95596.22;5138304;27;1035;-54
2023/09/06 10:36:57;;;;;;;;;;;;;;;25.33;48.50;95601.94;5138508;27;998;-53
2023/09/06 10:39:29;;;;;;;;;;;;;;;25.14;49.56;95605.88;5138268;27;1007;-53
2023/09/06 10:42:15;;;;;;;;;;;;;;;24.87;50.02;95595.47;5138354;27;1545;-53
2023/09/06 10:44:54;;;;;;;;;;;;;;;24.83;49.48;95590.72;5138379;27;965;-54
2023/09/06 10:47:31;;;;;;;;;;;;;;;24.93;50.10;95599.97;5137913;27;1031;-53
2023/09/06 10:50:11;;;;;;;;;;;;;;;24.87;49.44;95597.34;5138254;27;1063;-54
2023/09/06 10:52:49;;;;;;;;;;;;;;;24.82;50.22;95600.00;5122500;27;1909;-54
2023/09/06 10:55:26;;;;;;;;;;;;;;;24.94;48.65;95593.41;5117532;28;962;-54
2023/09/06 10:58:12;;;;;;;;;;;;;;;25.03;48.38;95591.16;5117231;28;1036;-54
2023/09/06 11:00:40;;;;;;;;;;;;;;;25.00;49.02;95588.88;5117278;28;1027;-54
2023/09/06 11:03:07;;;;;;;;;;;;;;;24.92;49.73;95590.09;5117146;28;1029;-54
2023/09/06 11:05:35;;;;;;;;;;;;;;;24.74;49.59;95585.63;5117065;28;1164;-54
2023/09/06 11:08:01;;;;;;;;;;;;;;;24.66;49.67;95586.00;5101251;27;2558;-54
2023/09/06 11:10:27;;;;;;;;;;;;;;;24.76;49.58;95588.13;5096471;28;909;-54
2023/09/06 11:12:56;;;;;;;;;;;;;;;24.89;48.61;95581.53;5096617;28;1988;-53
2023/09/06 11:15:23;;;;;;;;;;;;;;;24.81;49.04;95576.44;5096323;28;1119;-54
2023/09/06 11:17:52;;;;;;;;;;;;;;;24.68;49.52;95569.31;5096595;28;1072;-53
2023/09/06 11:20:18;;;;;;;;;;;;;;;24.57;49.11;95565.56;5096590;28;988;-54
2023/09/06 11:23:03;;;;;;;;;;;;;;;24.77;47.77;95572.53;5096645;28;2252;-54
2023/09/06 11:25:53;;;;;;;;;;;;;;;24.98;48.30;95571.06;5096288;28;2059;-54
2023/09/06 11:28:42;;;;;;;;;;;;;;;24.93;47.04;95564.41;5096491;28;2041;-54
2023/09/06 11:31:25;;;;;;;;;;;;;;;25.06;47.88;95552.38;5095977;28;1032;-54
2023/09/06 11:34:13;;;;;;;;;;;;;;;25.21;47.20;95551.00;5095940;28;2027;-54
2023/09/06 11:37:03;;;;;;;;;;;;;;;25.16;45.72;95557.22;5096089;28;2170;-54
2023/09/06 11:39:49;;;;;;;;;;;;;;;25.11;46.91;95551.63;5095992;28;2092;-54
2023/09/06 11:42:35;;;;;;;;;;;;;;;25.14;47.89;95534.75;5096421;28;1890;-54
2023/09/06 11:45:05;;;;;;;;;;;;;;;25.20;46.88;95541.97;5095918;28;1023;-54
2023/09/06 11:47:32;;;;;;;;;;;;;;;25.28;46.84;95540.78;5095862;28;1020;-54
2023/09/06 11:50:03;;;;;;;;;;;;;;;25.19;45.90;95545.78;5096170;28;986;-54
2023/09/06 11:52:30;;;;;;;;;;;;;;;25.20;46.45;95528.28;5109376;28;1969;-54
2023/09/06 11:54:58;;;;;;;;;;;;;;;25.28;45.89;95525.19;5116114;28;1051;-54
2023/09/06 11:57:30;;;;;;;;;;;;;;;25.22;46.45;95526.16;5116225;28;1047;-54
2023/09/06 12:00:00;;;;;;;;;;;;;;;25.14;46.56;95526.53;5116244;28;963;-54
2023/09/06 12:02:34;;;;;;;;;;;;;;;25.06;46.81;95524.16;5116000;28;949;-54
2023/09/06 12:05:03;;;;;;;;;;;;;;;25.09;46.30;95505.38;5115932;28;1035;-54
2023/09/06 12:07:31;;;;;;;;;;;;;;;25.13;46.58;95516.66;5116117;28;971;-54
2023/09/06 12:09:57;;;;;;;;;;;;;;;25.49;46.21;95512.72;5116177;28;977;-54
2023/09/06 12:12:26;;;;;;;;;;;;;;;25.70;45.76;95505.69;5115970;28;1910;-53
2023/09/06 12:14:52;;;;;;;;;;;;;;;25.66;44.68;95503.69;5116033;28;1023;-54
2023/09/06 12:17:19;;;;;;;;;;;;;;;25.74;44.21;95511.50;5115752;28;971;-54
2023/09/06 12:19:45;;;;;;;;;;;;;;;25.94;44.96;95507.50;5115587;28;1096;-53
2023/09/06 12:22:17;;;;;;;;;;;;;;;26.18;44.41;95505.38;5130399;27;1142;-54
2023/09/06 12:24:46;;;;;;;;;;;;;;;26.21;43.67;95502.97;5130782;27;1466;-54
2023/09/06 12:27:14;;;;;;;;;;;;;;;25.88;44.12;95492.84;5127265;27;1028;-54
2023/09/06 12:29:41;;;;;;;;;;;;;;;25.80;45.05;95491.34;5136123;27;1043;-55
2023/09/06 12:32:08;;;;;;;;;;;;;;;25.70;43.95;95493.91;5134887;27;2489;-55
2023/09/06 12:34:34;;;;;;;;;;;;;;;25.64;44.75;95487.50;5136245;27;956;-56
2023/09/06 12:37:00;;;;;;;;;;;;;;;25.78;44.35;95485.31;5135845;27;1193;-56
2023/09/06 12:39:26;;;;;;;;;;;;;;;25.84;43.56;95484.28;5135842;27;1188;-55
2023/09/06 12:41:52;;;;;;;;;;;;;;;25.79;44.33;95481.47;5135817;27;1098;-56
2023/09/06 12:44:18;;;;;;;;;;;;;;;25.77;43.83;95482.81;5135397;27;1028;-55
2023/09/06 12:46:44;;;;;;;;;;;;;;;25.72;43.43;95478.06;5135767;27;1016;-55
2023/09/06 12:49:10;;;;;;;;;;;;;;;25.77;44.29;95474.59;5135881;27;1060;-55
2023/09/06 12:55:00;;;;;;;;;;;;;;;25.85;44.31;95469.50;5089400;28;1045;-53
2023/09/06 12:57:26;;;;;;;;;;;;;;;25.87;43.97;95470.09;5114913;28;1221;-56
2023/09/06 12:59:56;;;;;;;;;;;;;;;26.01;43.79;95467.03;5112442;28;1672;-55
2023/09/06 13:02:23;;;;;;;;;;;;;;;26.18;44.26;95469.75;5103279;28;1743;-56
2023/09/06 13:04:49;;;;;;;;;;;;;;;26.17;42.93;95468.09;5106544;28;1713;-56
2023/09/06 13:07:15;;;;;;;;;;;;;;;26.06;43.36;95465.19;5103770;28;1064;-56
2023/09/06 13:09:41;;;;;;;;;;;;;;;26.01;43.37;95458.81;5094196;28;1353;-55
2023/09/06 13:12:07;;;;;;;;;;;;;;;26.02;42.44;95458.56;5093532;28;1926;-56
2023/09/06 13:14:33;;;;;;;;;;;;;;;25.99;44.10;95460.97;5094375;28;1060;-55
2023/09/06 13:16:59;;;;;;;;;;;;;;;25.95;43.90;95457.09;5100450;28;1402;-55
2023/09/06 13:19:25;;;;;;;;;;;;;;;25.83;44.01;95452.50;5107166;28;2399;-55
2023/09/06 13:21:51;;;;;;;;;;;;;;;25.83;44.72;95460.72;5099561;28;1613;-55
2023/09/06 13:24:18;;;;;;;;;;;;;;;25.81;44.52;95451.09;5113947;28;1355;-55
2023/09/06 13:26:44;;;;;;;;;;;;;;;25.81;44.06;95451.09;5112384;28;1520;-55
2023/09/06 13:29:10;;;;;;;;;;;;;;;25.69;44.37;95456.66;5103118;28;1584;-56
2023/09/06 13:31:37;;;;;;;;;;;;;;;25.64;44.29;95456.56;5098273;28;1726;-55
2023/09/06 13:34:03;;;;;;;;;;;;;;;25.52;44.61;95456.66;5114274;28;1992;-55
2023/09/06 13:36:36;;;;;;;;;;;;;;;25.50;45.59;95451.44;5110960;28;1574;-56
2023/09/06 13:39:05;;;;;;;;;;;;;;;25.43;44.86;95455.41;5110976;28;1872;-57
2023/09/06 13:41:31;;;;;;;;;;;;;;;25.39;44.21;95444.13;5114075;28;1051;-56
2023/09/06 13:43:57;;;;;;;;;;;;;;;25.32;44.65;95438.78;5114413;28;1067;-57
2023/09/06 13:46:23;;;;;;;;;;;;;;;25.36;45.01;95441.03;5114369;28;1035;-58
2023/09/06 13:48:49;;;;;;;;;;;;;;;25.30;44.77;95440.94;5114149;28;965;-59
2023/09/06 13:51:15;;;;;;;;;;;;;;;25.25;44.31;95440.03;5114032;28;1225;-57
2023/09/06 13:53:41;;;;;;;;;;;;;;;25.21;44.48;95444.31;5114215;28;1968;-58
2023/09/06 13:56:07;;;;;;;;;;;;;;;25.11;44.22;95444.94;5113620;28;989;-58
2023/09/06 13:58:35;;;;;;;;;;;;;;;25.13;44.79;95438.16;5113908;28;1082;-58
2023/09/06 14:01:01;;;;;;;;;;;;;;;25.11;44.98;95431.28;5113624;28;1338;-57